Time;durP1;ratioP1;P1;durP2;ratioP2;P2;SDS_P1;SDS_P2;PMS_P1;PMS_P2;Temp;Humidity;BMP_temperature;BMP_pressure;BME280_temperature;BME280_humidity;BME280_pressure;Samples;Min_cycle;Max_cycle;Signal;HPM_P1;HPM_P2
2022/10/18 00:02:00;;;;;;;22.20;3.40;;;13.50;80.80;;;;;;4181135;28;20405;-85
2022/10/18 00:04:19;;;;;;;19.45;3.45;;;13.50;80.90;;;;;;4194733;28;20561;-85
2022/10/18 00:06:38;;;;;;;19.55;3.80;;;13.30;80.70;;;;;;4204224;28;20036;-84
2022/10/18 00:08:57;;;;;;;22.40;3.45;;;13.30;80.80;;;;;;4201786;28;20057;-85
2022/10/18 00:11:16;;;;;;;26.45;3.90;;;13.40;80.80;;;;;;4196679;28;20088;-85
2022/10/18 00:13:36;;;;;;;21.63;3.17;;;13.20;80.70;;;;;;4199504;28;20078;-85
2022/10/18 00:15:58;;;;;;;18.95;3.75;;;13.20;80.80;;;;;;4200792;28;20067;-85
2022/10/18 00:18:18;;;;;;;20.83;3.83;;;13.20;80.80;;;;;;4195882;28;20093;-85
2022/10/18 00:20:38;;;;;;;10.98;3.58;;;13.30;81.00;;;;;;4195435;28;20067;-85
2022/10/18 00:23:10;;;;;;;19.40;3.45;;;13.20;80.80;;;;;;4202430;28;20382;-85
2022/10/18 00:25:29;;;;;;;21.38;4.80;;;13.20;80.90;;;;;;4215694;28;20051;-85
2022/10/18 00:27:48;;;;;;;25.58;4.75;;;13.30;80.90;;;;;;4194074;28;20066;-85
2022/10/18 00:30:08;;;;;;;20.73;4.18;;;13.10;80.90;;;;;;4196054;28;20036;-85
2022/10/18 00:32:28;;;;;;;18.45;4.32;;;13.10;80.90;;;;;;4201080;28;20027;-85
2022/10/18 00:34:47;;;;;;;23.92;3.97;;;13.10;81.00;;;;;;4194942;28;20047;-85
2022/10/18 00:37:07;;;;;;;20.88;4.35;;;13.10;81.00;;;;;;4194271;28;20140;-84
2022/10/18 00:39:26;;;;;;;18.10;4.18;;;13.10;81.00;;;;;;4197457;28;20078;-84
2022/10/18 00:41:46;;;;;;;17.42;4.25;;;13.00;81.00;;;;;;4194903;28;20047;-85
2022/10/18 00:44:26;;;;;;;23.60;4.78;;;13.00;81.00;;;;;;4193444;28;20083;-85
2022/10/18 00:46:48;;;;;;;15.73;4.63;;;13.00;81.20;;;;;;4188378;28;20629;-85
2022/10/18 00:49:10;;;;;;;16.40;4.70;;;13.00;81.10;;;;;;4194094;28;20063;-85
2022/10/18 00:51:47;;;;;;;17.80;4.70;;;13.00;81.30;;;;;;4193311;28;21338;-85
2022/10/18 00:54:06;;;;;;;26.85;4.80;;;12.90;81.40;;;;;;4193457;28;20058;-85
2022/10/18 00:56:26;;;;;;;28.80;5.40;;;12.90;81.40;;;;;;4194415;28;20059;-84
2022/10/18 00:58:47;;;;;;;15.60;4.90;;;12.90;81.30;;;;;;4194624;28;20043;-85
2022/10/18 01:01:07;;;;;;;28.27;6.10;;;12.90;81.50;;;;;;4198508;28;20038;-85
2022/10/18 01:03:26;;;;;;;19.42;6.03;;;12.90;81.50;;;;;;4196439;28;20530;-85
2022/10/18 01:05:46;;;;;;;22.50;5.93;;;12.90;81.60;;;;;;4202931;28;20388;-85
2022/10/18 01:08:43;;;;;;;20.77;6.43;;;12.80;81.60;;;;;;4202496;28;20074;-84
2022/10/18 01:11:40;;;;;;;22.00;5.70;;;12.80;82.00;;;;;;4174086;28;20036;-84
2022/10/18 01:14:11;;;;;;;22.25;4.97;;;12.80;81.90;;;;;;4206057;28;20571;-84
2022/10/18 01:17:05;;;;;;;23.20;6.00;;;12.80;81.70;;;;;;4199919;28;20036;-84
2022/10/18 01:19:49;;;;;;;19.17;5.15;;;12.80;82.00;;;;;;4203321;28;20043;-85
2022/10/18 01:22:35;;;;;;;23.33;5.63;;;12.70;82.00;;;;;;4195527;28;20565;-85
2022/10/18 01:25:25;;;;;;;24.98;5.28;;;12.80;81.90;;;;;;4193723;28;20028;-84
2022/10/18 01:27:52;;;;;;;22.42;5.60;;;12.80;82.10;;;;;;4206282;28;20144;-84
2022/10/18 01:30:36;;;;;;;23.85;6.47;;;12.70;81.80;;;;;;4193408;28;20040;-85
2022/10/18 01:33:04;;;;;;;15.00;5.63;;;12.60;82.00;;;;;;4190777;28;20078;-84
2022/10/18 01:35:35;;;;;;;24.92;5.95;;;12.70;82.00;;;;;;4201720;28;20141;-85
2022/10/18 01:37:58;;;;;;;29.75;6.32;;;12.70;82.00;;;;;;4196714;28;20093;-85
2022/10/18 01:40:21;;;;;;;24.93;4.87;;;12.70;82.80;;;;;;4198844;28;20042;-85
2022/10/18 01:42:40;;;;;;;20.27;5.97;;;12.80;82.20;;;;;;4193019;28;20302;-85
2022/10/18 01:45:02;;;;;;;23.80;5.80;;;12.60;82.10;;;;;;4196039;28;20035;-84
2022/10/18 01:47:22;;;;;;;19.55;4.97;;;12.60;82.10;;;;;;4194250;28;20047;-85
2022/10/18 01:49:42;;;;;;;18.52;5.35;;;12.60;82.10;;;;;;4197296;28;20043;-84
2022/10/18 01:52:01;;;;;;;16.58;5.53;;;12.70;82.20;;;;;;4191569;28;20036;-85
2022/10/18 01:54:36;;;;;;;23.98;5.72;;;12.60;82.30;;;;;;4191215;28;20063;-85
2022/10/18 01:57:21;;;;;;;22.83;6.88;;;12.50;82.40;;;;;;4189423;28;20030;-84
2022/10/18 02:00:09;;;;;;;23.90;6.15;;;12.50;82.90;;;;;;4188473;28;20044;-85
2022/10/18 02:02:46;;;;;;;22.17;6.65;;;12.50;82.90;;;;;;4200317;28;20066;-84
2022/10/18 02:05:24;;;;;;;25.27;6.03;;;12.60;82.80;;;;;;4193106;28;20591;-85
2022/10/18 02:08:08;;;;;;;43.17;7.28;;;12.50;82.90;;;;;;4200963;28;20562;-85
2022/10/18 02:10:32;;;;;;;23.15;5.85;;;12.60;83.20;;;;;;4190190;28;20063;-84
2022/10/18 02:12:54;;;;;;;26.20;7.40;;;12.60;83.00;;;;;;4195884;28;20035;-85
2022/10/18 02:15:18;;;;;;;23.25;6.82;;;12.60;83.10;;;;;;4196207;28;20045;-85
2022/10/18 02:17:39;;;;;;;18.40;7.57;;;12.60;83.20;;;;;;4196914;28;20050;-85
2022/10/18 02:20:00;;;;;;;22.80;6.75;;;12.60;83.30;;;;;;4191304;28;20415;-85
2022/10/18 02:22:23;;;;;;;69.50;9.57;;;12.70;83.40;;;;;;4187797;28;20429;-84
2022/10/18 02:24:53;;;;;;;21.90;6.57;;;12.60;83.40;;;;;;4192314;28;20044;-85
2022/10/18 02:27:13;;;;;;;20.77;6.78;;;12.60;83.50;;;;;;4197760;28;20059;-85
2022/10/18 02:29:33;;;;;;;16.08;6.35;;;12.60;83.50;;;;;;4203064;28;20035;-85
2022/10/18 02:32:28;;;;;;;19.77;6.32;;;12.70;83.50;;;;;;4201886;28;20531;-85
2022/10/18 02:35:07;;;;;;;21.88;6.50;;;12.70;83.60;;;;;;4182536;28;20036;-85
2022/10/18 02:37:34;;;;;;;24.48;6.72;;;12.70;83.70;;;;;;4178846;28;20766;-85
2022/10/18 02:39:53;;;;;;;22.50;6.57;;;12.70;83.50;;;;;;4176922;28;20031;-84
2022/10/18 02:42:14;;;;;;;33.65;7.28;;;12.70;83.30;;;;;;4169588;28;20071;-84
2022/10/18 02:44:34;;;;;;;31.40;7.32;;;12.70;83.40;;;;;;4182346;28;20035;-85
2022/10/18 02:46:54;;;;;;;30.60;6.60;;;12.70;83.50;;;;;;4179710;28;20407;-85
2022/10/18 02:49:13;;;;;;;23.50;6.03;;;12.70;83.40;;;;;;4181603;28;20082;-84
2022/10/18 02:51:33;;;;;;;22.15;6.07;;;12.70;83.50;;;;;;4164814;28;20043;-85
2022/10/18 02:53:52;;;;;;;33.95;6.38;;;12.60;83.30;;;;;;4171728;28;20117;-85
2022/10/18 02:56:11;;;;;;;21.45;5.80;;;12.80;83.40;;;;;;4178563;28;20142;-85
2022/10/18 02:58:31;;;;;;;29.35;5.60;;;12.70;83.30;;;;;;4187472;28;20055;-84
2022/10/18 03:00:50;;;;;;;27.08;6.40;;;12.70;83.30;;;;;;4188915;28;20039;-86
2022/10/18 03:03:09;;;;;;;25.13;5.63;;;12.70;83.30;;;;;;4172822;28;20100;-85
2022/10/18 03:05:29;;;;;;;32.47;6.45;;;12.70;83.40;;;;;;4187373;28;20078;-85
2022/10/18 03:07:48;;;;;;;25.45;5.78;;;12.70;83.60;;;;;;4176952;28;20036;-85
2022/10/18 03:10:08;;;;;;;20.60;5.25;;;12.70;83.60;;;;;;4162376;28;20044;-84
2022/10/18 03:12:27;;;;;;;23.45;5.40;;;12.70;83.60;;;;;;4186198;28;20396;-84
2022/10/18 03:14:46;;;;;;;19.15;5.38;;;12.60;83.60;;;;;;4196575;28;20166;-85
2022/10/18 03:17:05;;;;;;;28.23;5.68;;;12.70;83.80;;;;;;4199778;28;20047;-85
2022/10/18 03:19:24;;;;;;;20.35;4.85;;;12.70;83.70;;;;;;4194054;28;20089;-85
2022/10/18 03:21:44;;;;;;;30.20;6.13;;;12.70;83.80;;;;;;4200064;28;20597;-85
2022/10/18 03:24:03;;;;;;;23.10;5.43;;;12.70;83.90;;;;;;4200863;28;20169;-85
2022/10/18 03:26:22;;;;;;;24.23;5.53;;;12.60;84.00;;;;;;4192706;28;20519;-85
2022/10/18 03:28:41;;;;;;;28.95;6.35;;;12.70;84.20;;;;;;4189696;28;20047;-84
2022/10/18 03:31:02;;;;;;;31.13;5.50;;;12.70;84.10;;;;;;4191116;28;20067;-84
2022/10/18 03:33:21;;;;;;;23.08;5.50;;;12.70;84.20;;;;;;4193639;28;20063;-84
2022/10/18 03:35:40;;;;;;;22.83;5.18;;;12.80;84.30;;;;;;4194334;28;20408;-85
2022/10/18 03:37:59;;;;;;;29.90;5.80;;;12.70;84.10;;;;;;4187977;28;20036;-85
2022/10/18 03:40:19;;;;;;;32.30;7.45;;;12.80;84.40;;;;;;4188744;28;20141;-85
2022/10/18 03:42:38;;;;;;;28.17;7.10;;;12.90;84.50;;;;;;4195791;28;20112;-85
2022/10/18 03:44:57;;;;;;;29.52;7.78;;;12.80;84.30;;;;;;4193929;28;20030;-85
2022/10/18 03:47:16;;;;;;;25.50;6.20;;;12.80;84.40;;;;;;4197326;28;20072;-84
2022/10/18 03:49:35;;;;;;;28.17;7.53;;;12.80;84.40;;;;;;4201822;28;20100;-85
2022/10/18 03:51:54;;;;;;;33.70;7.28;;;12.80;84.50;;;;;;4203403;28;20050;-84
2022/10/18 03:54:13;;;;;;;28.17;7.45;;;12.80;84.50;;;;;;4198381;28;20067;-85
2022/10/18 03:56:32;;;;;;;23.90;7.07;;;12.90;84.50;;;;;;4191361;28;20031;-85
2022/10/18 03:58:51;;;;;;;36.28;7.90;;;12.80;84.50;;;;;;4192112;28;20075;-85
2022/10/18 04:01:11;;;;;;;22.67;7.20;;;12.90;84.70;;;;;;4188069;28;20039;-85
2022/10/18 04:03:30;;;;;;;34.30;7.32;;;12.80;84.50;;;;;;4194305;28;20039;-85
2022/10/18 04:05:49;;;;;;;30.33;7.07;;;12.80;84.50;;;;;;4191926;28;20059;-85
2022/10/18 04:08:09;;;;;;;31.60;6.35;;;12.90;84.50;;;;;;4202257;28;20046;-85
2022/10/18 04:10:28;;;;;;;24.38;6.38;;;12.90;84.50;;;;;;4194466;28;20115;-84
2022/10/18 04:12:47;;;;;;;32.65;6.78;;;12.90;84.60;;;;;;4191056;28;20137;-85
2022/10/18 04:15:07;;;;;;;27.02;7.47;;;12.90;84.50;;;;;;4188754;28;20455;-85
2022/10/18 04:17:26;;;;;;;25.77;6.00;;;12.90;84.60;;;;;;4195209;28;20027;-85
2022/10/18 04:19:45;;;;;;;26.75;6.80;;;13.00;84.60;;;;;;4192676;28;20070;-85
2022/10/18 04:22:17;;;;;;;27.95;6.10;;;12.90;84.50;;;;;;4190769;28;20029;-84
2022/10/18 04:24:37;;;;;;;27.23;5.72;;;13.00;84.50;;;;;;4183261;28;20051;-85
2022/10/18 04:26:56;;;;;;;28.38;6.38;;;12.90;84.40;;;;;;4195301;28;20031;-85
2022/10/18 04:29:15;;;;;;;22.00;6.30;;;12.90;84.50;;;;;;4198297;28;20027;-85
2022/10/18 04:31:34;;;;;;;24.92;6.20;;;12.90;84.40;;;;;;4194030;28;20031;-84
2022/10/18 04:33:53;;;;;;;23.33;5.97;;;12.90;84.40;;;;;;4194555;28;20359;-85
2022/10/18 04:36:13;;;;;;;33.30;6.55;;;12.90;84.40;;;;;;4193634;28;20039;-85
2022/10/18 04:38:32;;;;;;;34.00;6.13;;;12.90;85.20;;;;;;4197004;28;20085;-85
2022/10/18 04:40:51;;;;;;;26.17;5.80;;;12.90;84.50;;;;;;4198043;28;20043;-84
2022/10/18 04:43:10;;;;;;;27.58;6.75;;;12.90;84.40;;;;;;4199173;28;20049;-84
2022/10/18 04:45:29;;;;;;;25.30;5.40;;;13.00;84.50;;;;;;4203852;28;20400;-83
2022/10/18 04:47:48;;;;;;;22.00;5.85;;;13.00;84.50;;;;;;4197071;28;20553;-83
2022/10/18 04:50:08;;;;;;;25.60;6.05;;;13.00;84.50;;;;;;4200934;28;20395;-84
2022/10/18 04:52:27;;;;;;;27.63;6.38;;;13.00;84.50;;;;;;4196393;28;20535;-84
2022/10/18 04:54:46;;;;;;;25.75;5.68;;;13.00;84.50;;;;;;4194347;28;20043;-84
2022/10/18 04:57:05;;;;;;;25.88;5.57;;;13.00;84.40;;;;;;4200831;28;20120;-84
2022/10/18 04:59:25;;;;;;;23.05;5.30;;;13.00;84.40;;;;;;4197364;28;20408;-84
2022/10/18 05:01:44;;;;;;;20.33;6.00;;;13.00;84.50;;;;;;4198395;28;20047;-84
2022/10/18 05:04:03;;;;;;;26.38;5.78;;;13.00;84.40;;;;;;4198941;28;20051;-84
2022/10/18 05:06:22;;;;;;;24.90;5.80;;;13.00;84.40;;;;;;4200613;28;20032;-84
2022/10/18 05:08:41;;;;;;;32.85;6.32;;;13.00;84.40;;;;;;4201511;28;20085;-84
2022/10/18 05:11:00;;;;;;;22.15;5.07;;;13.00;84.40;;;;;;4199027;28;20052;-84
2022/10/18 05:13:19;;;;;;;29.13;6.47;;;13.00;84.40;;;;;;4197017;28;20043;-84
2022/10/18 05:15:38;;;;;;;23.60;5.80;;;13.00;84.40;;;;;;4194691;28;20048;-84
2022/10/18 05:17:57;;;;;;;25.20;6.22;;;13.00;84.40;;;;;;4192994;28;20754;-84
2022/10/18 05:20:16;;;;;;;26.92;5.95;;;13.00;84.40;;;;;;4199113;28;20085;-84
2022/10/18 05:22:36;;;;;;;26.25;6.68;;;13.00;84.40;;;;;;4197485;28;20060;-84
2022/10/18 05:24:55;;;;;;;31.60;6.10;;;13.00;84.30;;;;;;4194121;28;20035;-84
2022/10/18 05:27:14;;;;;;;21.48;6.05;;;13.00;84.30;;;;;;4193647;28;20055;-84
2022/10/18 05:29:33;;;;;;;32.78;6.30;;;13.00;84.20;;;;;;4194691;28;20545;-84
2022/10/18 05:31:52;;;;;;;20.75;6.18;;;13.00;84.20;;;;;;4196458;28;20084;-84
2022/10/18 05:34:11;;;;;;;30.20;5.95;;;13.10;84.30;;;;;;4197967;28;20039;-83
2022/10/18 05:36:30;;;;;;;28.25;6.55;;;13.00;84.10;;;;;;4208543;28;20625;-84
2022/10/18 05:38:49;;;;;;;30.05;6.22;;;13.00;84.10;;;;;;4199185;28;20066;-84
2022/10/18 05:41:08;;;;;;;20.60;5.30;;;12.90;84.00;;;;;;4193919;28;20405;-84
2022/10/18 05:43:28;;;;;;;24.67;6.10;;;13.00;84.00;;;;;;4197999;28;20039;-84
2022/10/18 05:45:50;;;;;;;21.45;5.32;;;13.00;83.90;;;;;;4196438;28;20144;-85
2022/10/18 05:48:09;;;;;;;26.27;5.53;;;12.90;83.70;;;;;;4192538;28;20640;-83
2022/10/18 05:50:29;;;;;;;25.48;5.55;;;12.90;83.70;;;;;;4193311;28;20118;-84
2022/10/18 05:52:48;;;;;;;20.55;5.18;;;12.90;83.70;;;;;;4198790;28;20043;-83
2022/10/18 05:55:07;;;;;;;22.00;5.28;;;12.90;83.70;;;;;;4190880;28;20032;-84
2022/10/18 05:57:26;;;;;;;22.30;5.43;;;12.90;83.70;;;;;;4193251;28;20059;-84
2022/10/18 05:59:45;;;;;;;20.20;4.93;;;12.80;83.50;;;;;;4199454;28;20052;-85
2022/10/18 06:02:05;;;;;;;18.13;4.93;;;12.90;83.50;;;;;;4193205;28;20086;-84
2022/10/18 06:04:24;;;;;;;20.55;4.45;;;12.80;83.40;;;;;;4191396;28;20121;-84
2022/10/18 06:06:43;;;;;;;16.67;5.00;;;12.80;83.40;;;;;;4190115;28;21435;-84
2022/10/18 06:09:03;;;;;;;22.45;4.82;;;12.80;83.40;;;;;;4195041;28;20032;-84
2022/10/18 06:11:22;;;;;;;23.35;5.03;;;12.80;83.40;;;;;;4192926;28;20102;-84
2022/10/18 06:13:47;;;;;;;21.55;4.00;;;12.70;83.30;;;;;;4194101;28;20044;-84
2022/10/18 06:16:07;;;;;;;24.33;4.72;;;12.70;83.30;;;;;;4194421;28;20036;-84
2022/10/18 06:18:26;;;;;;;20.05;4.60;;;12.70;83.20;;;;;;4192796;28;20051;-83
2022/10/18 06:20:45;;;;;;;18.02;4.63;;;12.80;83.20;;;;;;4192205;28;20072;-84
2022/10/18 06:23:04;;;;;;;24.35;5.18;;;12.80;83.20;;;;;;4194561;28;20036;-84
2022/10/18 06:25:23;;;;;;;19.23;4.35;;;12.80;83.30;;;;;;4191179;28;20058;-83
2022/10/18 06:27:42;;;;;;;22.77;5.13;;;12.60;83.10;;;;;;4196385;28;20043;-84
2022/10/18 06:30:02;;;;;;;25.15;5.55;;;12.60;83.10;;;;;;4193743;28;20108;-85
2022/10/18 06:32:22;;;;;;;23.27;4.75;;;12.60;83.10;;;;;;4194351;28;20097;-84
2022/10/18 06:34:41;;;;;;;23.38;5.50;;;12.60;83.10;;;;;;4189473;28;20412;-84
2022/10/18 06:37:00;;;;;;;27.83;5.90;;;12.70;83.20;;;;;;4202424;28;20043;-84
2022/10/18 06:39:19;;;;;;;28.00;5.10;;;12.50;83.10;;;;;;4200298;28;20056;-84
2022/10/18 06:41:37;;;;;;;26.50;5.85;;;12.50;83.20;;;;;;4195115;28;20051;-84
2022/10/18 06:43:59;;;;;;;22.98;5.15;;;12.50;83.20;;;;;;4195960;28;20032;-84
2022/10/18 06:46:18;;;;;;;28.55;5.40;;;12.50;83.20;;;;;;4192551;28;20463;-84
2022/10/18 06:48:38;;;;;;;29.00;5.80;;;12.50;83.20;;;;;;4191229;28;20046;-84
2022/10/18 06:51:00;;;;;;;19.90;4.95;;;12.40;83.20;;;;;;4192553;28;20082;-84
2022/10/18 06:53:19;;;;;;;23.52;5.65;;;12.50;83.40;;;;;;4195489;28;20035;-84
2022/10/18 06:55:38;;;;;;;24.02;5.50;;;12.40;83.30;;;;;;4190551;28;20039;-84
2022/10/18 06:57:57;;;;;;;20.15;5.93;;;12.40;83.30;;;;;;4187106;28;20192;-84
2022/10/18 07:00:16;;;;;;;20.65;5.30;;;12.40;84.10;;;;;;4189750;28;20459;-84
2022/10/18 07:02:36;;;;;;;21.23;5.35;;;12.40;83.40;;;;;;4190929;28;20043;-84
2022/10/18 07:04:55;;;;;;;20.55;4.80;;;12.50;83.50;;;;;;4195541;28;20687;-84
2022/10/18 07:07:15;;;;;;;22.65;4.95;;;12.40;83.40;;;;;;4191615;28;20039;-84
2022/10/18 07:09:34;;;;;;;21.98;5.00;;;12.40;83.40;;;;;;4192450;28;20764;-84
2022/10/18 07:11:53;;;;;;;22.45;4.93;;;12.40;83.50;;;;;;4196416;28;20046;-84
2022/10/18 07:14:12;;;;;;;22.48;5.43;;;12.40;83.50;;;;;;4192919;28;20043;-84
2022/10/18 07:16:32;;;;;;;28.98;4.93;;;12.50;83.50;;;;;;4196370;28;20036;-84
2022/10/18 07:18:51;;;;;;;28.42;5.60;;;12.40;83.50;;;;;;4209477;28;20047;-85
2022/10/18 07:21:13;;;;;;;21.00;4.57;;;12.30;83.40;;;;;;4199866;28;20039;-84
2022/10/18 07:23:36;;;;;;;17.58;4.60;;;12.30;83.40;;;;;;4204396;28;20054;-84
2022/10/18 07:25:55;;;;;;;30.67;4.90;;;12.30;83.40;;;;;;4191742;28;20039;-84
2022/10/18 07:28:14;;;;;;;26.00;4.95;;;12.40;83.50;;;;;;4200286;28;20089;-84
2022/10/18 07:30:33;;;;;;;27.15;4.65;;;12.30;83.40;;;;;;4199899;28;20031;-84
2022/10/18 07:32:52;;;;;;;23.17;4.70;;;12.30;83.40;;;;;;4194188;28;20046;-84
2022/10/18 07:35:11;;;;;;;23.63;4.50;;;12.30;83.30;;;;;;4199923;28;20664;-84
2022/10/18 07:37:30;;;;;;;20.30;4.25;;;12.30;83.40;;;;;;4198484;28;20468;-84
2022/10/18 07:39:49;;;;;;;26.38;5.45;;;12.30;84.10;;;;;;4194567;28;20051;-83
2022/10/18 07:42:09;;;;;;;21.95;4.28;;;12.30;83.40;;;;;;4199628;28;20031;-84
2022/10/18 07:44:28;;;;;;;18.10;4.28;;;12.30;83.40;;;;;;4199858;28;20035;-84
2022/10/18 07:46:47;;;;;;;21.92;4.57;;;12.30;83.50;;;;;;4201089;28;20039;-84
2022/10/18 07:49:06;;;;;;;21.30;4.05;;;12.30;83.60;;;;;;4194322;28;20051;-84
2022/10/18 07:51:26;;;;;;;20.95;4.28;;;12.30;83.80;;;;;;4202877;28;20039;-84
2022/10/18 07:53:46;;;;;;;26.90;4.05;;;12.30;84.00;;;;;;4196639;28;20428;-84
2022/10/18 07:56:15;;;;;;;20.10;4.03;;;12.30;84.20;;;;;;4199983;28;20039;-84
2022/10/18 07:58:34;;;;;;;23.98;4.60;;;12.40;84.40;;;;;;4190569;28;20535;-84
2022/10/18 08:00:53;;;;;;;24.02;4.15;;;12.40;84.50;;;;;;4192490;28;20039;-84
2022/10/18 08:03:13;;;;;;;21.63;3.92;;;12.40;84.60;;;;;;4195052;28;20032;-85
2022/10/18 08:05:32;;;;;;;18.65;3.88;;;12.50;84.80;;;;;;4196779;28;20031;-84
2022/10/18 08:07:51;;;;;;;29.02;4.50;;;12.60;84.90;;;;;;4195169;28;20493;-85
2022/10/18 08:10:10;;;;;;;23.05;3.67;;;12.60;85.00;;;;;;4194950;28;20511;-84
2022/10/18 08:12:30;;;;;;;25.17;3.85;;;12.60;85.00;;;;;;4195502;28;20408;-84
2022/10/18 08:14:49;;;;;;;25.52;4.00;;;12.80;85.20;;;;;;4198018;28;20087;-84
2022/10/18 08:17:08;;;;;;;26.15;4.15;;;12.70;85.20;;;;;;4200469;28;20039;-84
2022/10/18 08:19:27;;;;;;;23.75;3.55;;;12.70;85.10;;;;;;4195773;28;20102;-85
2022/10/18 08:21:46;;;;;;;20.40;3.30;;;12.70;85.10;;;;;;4190684;28;20079;-85
2022/10/18 08:24:06;;;;;;;21.13;3.22;;;12.90;85.30;;;;;;4192376;28;20036;-84
2022/10/18 08:26:25;;;;;;;24.63;3.65;;;12.80;85.10;;;;;;4192147;28;20048;-84
2022/10/18 08:28:44;;;;;;;24.77;3.75;;;12.90;85.20;;;;;;4196083;28;20031;-85
2022/10/18 08:31:05;;;;;;;15.82;2.97;;;12.90;85.30;;;;;;4191690;28;20085;-84
2022/10/18 08:33:24;;;;;;;26.25;3.20;;;12.90;85.30;;;;;;4195304;28;20070;-85
2022/10/18 08:35:54;;;;;;;26.02;3.25;;;13.00;85.40;;;;;;4190032;28;20069;-85
2022/10/18 08:38:13;;;;;;;18.67;3.17;;;13.00;85.40;;;;;;4197139;28;20098;-84
2022/10/18 08:40:33;;;;;;;24.90;3.40;;;13.20;85.40;;;;;;4190281;28;20034;-85
2022/10/18 08:43:06;;;;;;;23.20;3.90;;;13.10;85.10;;;;;;4199061;28;20047;-85
2022/10/18 08:45:26;;;;;;;17.10;2.42;;;13.20;84.80;;;;;;4196260;28;20567;-85
2022/10/18 08:47:48;;;;;;;29.45;3.22;;;13.20;84.70;;;;;;4194908;28;20040;-85
2022/10/18 08:50:21;;;;;;;22.80;3.17;;;13.30;84.60;;;;;;4192627;28;20089;-85
2022/10/18 08:53:04;;;;;;;18.75;3.13;;;13.30;84.40;;;;;;4186827;28;20055;-85
2022/10/18 08:55:47;;;;;;;15.90;2.47;;;13.30;84.10;;;;;;4184596;28;20455;-85
2022/10/18 08:58:22;;;;;;;22.80;2.63;;;13.40;84.20;;;;;;4202900;28;20455;-84
2022/10/18 09:00:45;;;;;;;;;;;13.40;83.90;;;;;;4187417;28;20188;-84
2022/10/18 09:03:38;;;;;;;21.60;2.55;;;13.50;84.20;;;;;;4192982;28;19916;-85
2022/10/18 09:06:23;;;;;;;21.08;2.75;;;13.50;84.10;;;;;;4191919;28;20031;-85
2022/10/18 09:09:19;;;;;;;19.95;2.40;;;13.60;84.00;;;;;;4191787;28;20071;-84
2022/10/18 09:12:12;;;;;;;24.27;2.60;;;13.60;83.70;;;;;;4193313;28;20105;-85
2022/10/18 09:14:31;;;;;;;18.10;2.70;;;13.70;83.40;;;;;;4195114;28;20159;-84
2022/10/18 09:16:53;;;;;;;14.52;2.30;;;13.70;83.00;;;;;;4193632;28;20514;-85
2022/10/18 09:19:27;;;;;;;21.25;2.92;;;13.80;82.80;;;;;;4192285;28;20478;-85
2022/10/18 09:21:54;;;;;;;;;;;13.80;82.10;;;;;;4192391;28;20040;-85
2022/10/18 09:24:16;;;;;;;20.35;2.60;;;13.90;81.80;;;;;;4189329;28;19962;-85
2022/10/18 09:26:44;;;;;;;18.55;2.60;;;13.90;81.10;;;;;;4194808;28;20036;-85
2022/10/18 09:29:36;;;;;;;20.05;3.10;;;14.00;80.60;;;;;;4192816;28;20039;-85
2022/10/18 09:32:13;;;;;;;18.70;3.17;;;13.90;80.40;;;;;;4202071;28;20058;-85
2022/10/18 09:34:56;;;;;;;15.70;2.13;;;14.00;80.00;;;;;;4203564;28;20041;-86
2022/10/18 09:37:19;;;;;;;23.33;2.40;;;14.00;79.00;;;;;;4209597;28;20085;-85
2022/10/18 09:39:39;;;;;;;19.15;2.67;;;14.00;79.20;;;;;;4193802;28;20171;-85
2022/10/18 09:42:25;;;;;;;25.55;3.03;;;14.00;79.40;;;;;;4197317;28;20090;-85
2022/10/18 09:44:50;;;;;;;21.25;2.80;;;14.10;79.10;;;;;;4200485;28;20031;-84
2022/10/18 09:47:15;;;;;;;20.92;2.40;;;14.20;79.30;;;;;;4195026;28;20498;-85
2022/10/18 09:49:47;;;;;;;15.02;1.83;;;14.20;78.30;;;;;;4198499;28;20187;-86
2022/10/18 09:52:31;;;;;;;13.30;2.17;;;14.30;78.20;;;;;;4199845;28;20514;-85
2022/10/18 09:54:58;;;;;;;18.60;2.55;;;14.30;76.70;;;;;;4205814;28;20333;-85
2022/10/18 09:57:25;;;;;;;15.20;1.90;;;14.40;76.80;;;;;;4217464;28;20027;-85
2022/10/18 09:59:49;;;;;;;18.77;2.72;;;14.40;75.50;;;;;;4223069;28;20052;-84
2022/10/18 10:02:13;;;;;;;18.67;2.63;;;14.50;75.10;;;;;;4211185;28;20627;-84
2022/10/18 10:04:32;;;;;;;12.75;1.92;;;14.50;74.60;;;;;;4197219;28;20034;-84
2022/10/18 10:06:54;;;;;;;16.40;2.25;;;14.40;73.90;;;;;;4196897;28;20396;-85
2022/10/18 10:09:20;;;;;;;18.80;2.15;;;14.40;73.70;;;;;;4204388;28;20062;-84
2022/10/18 10:11:45;;;;;;;13.57;2.40;;;14.40;73.50;;;;;;4202096;28;20069;-85
2022/10/18 10:14:15;;;;;;;8.35;1.73;;;14.50;73.00;;;;;;4192156;28;20067;-85
2022/10/18 10:17:20;;;;;;;14.55;1.73;;;14.50;72.90;;;;;;4198939;28;20118;-85
2022/10/18 10:20:02;;;;;;;12.13;1.80;;;14.50;72.70;;;;;;4176645;28;20429;-85
2022/10/18 10:22:38;;;;;;;14.32;1.75;;;14.50;71.50;;;;;;4174242;28;20109;-85
2022/10/18 10:24:58;;;;;;;12.63;1.55;;;14.50;71.60;;;;;;4175712;28;20039;-85
2022/10/18 10:27:23;;;;;;;12.48;2.03;;;14.60;71.20;;;;;;4174793;28;20113;-85
2022/10/18 10:29:45;;;;;;;9.32;1.80;;;14.70;70.00;;;;;;4175172;28;20126;-85
2022/10/18 10:32:04;;;;;;;13.10;2.03;;;14.60;69.40;;;;;;4160433;28;20405;-84
2022/10/18 10:34:28;;;;;;;13.68;1.55;;;14.70;69.80;;;;;;4159442;28;20044;-84
2022/10/18 10:36:50;;;;;;;14.40;2.15;;;14.70;69.30;;;;;;4184592;28;20083;-85
2022/10/18 10:39:18;;;;;;;10.82;1.48;;;14.70;69.30;;;;;;4180541;28;20094;-86
2022/10/18 10:41:40;;;;;;;15.00;1.63;;;14.70;68.40;;;;;;4176372;28;20112;-85
2022/10/18 10:44:02;;;;;;;16.48;1.95;;;14.70;68.40;;;;;;4177093;28;20078;-85
2022/10/18 10:46:22;;;;;;;8.80;1.70;;;14.80;67.80;;;;;;4177561;28;20043;-85
2022/10/18 10:48:57;;;;;;;19.23;2.13;;;14.80;68.10;;;;;;4161799;28;20068;-85
2022/10/18 10:51:37;;;;;;;8.50;1.52;;;14.80;68.20;;;;;;4199251;28;20454;-84
2022/10/18 10:54:03;;;;;;;10.38;1.50;;;14.90;69.20;;;;;;4196145;28;20539;-85
2022/10/18 10:56:29;;;;;;;12.85;1.92;;;14.90;69.00;;;;;;4194476;28;20101;-85
2022/10/18 10:58:49;;;;;;;10.07;1.67;;;15.00;68.30;;;;;;4199691;28;20093;-85
2022/10/18 11:01:31;;;;;;;13.57;2.00;;;15.00;68.20;;;;;;4196446;28;20039;-86
2022/10/18 11:03:54;;;;;;;12.80;1.85;;;15.10;66.90;;;;;;4189003;28;20031;-84
2022/10/18 11:06:50;;;;;;;12.32;1.58;;;15.10;67.20;;;;;;4194699;28;20044;-85
2022/10/18 11:09:32;;;;;;;14.00;1.85;;;15.10;65.40;;;;;;4190658;28;20044;-85
2022/10/18 11:12:07;;;;;;;9.30;1.77;;;15.10;65.50;;;;;;4191317;28;20162;-84
2022/10/18 11:14:30;;;;;;;16.27;2.25;;;15.10;64.40;;;;;;4199650;28;20063;-85
2022/10/18 11:16:53;;;;;;;;;;;15.10;63.60;;;;;;4197015;28;20107;-85
2022/10/18 11:19:37;;;;;;;13.43;1.70;;;15.00;63.30;;;;;;4191224;28;20334;-85
2022/10/18 11:21:57;;;;;;;17.08;1.98;;;15.00;63.30;;;;;;4192768;28;20090;-84
2022/10/18 11:24:17;;;;;;;14.35;1.90;;;15.00;63.80;;;;;;4192616;28;20028;-84
2022/10/18 11:26:51;;;;;;;17.77;2.28;;;15.00;63.30;;;;;;4188852;28;20087;-84
2022/10/18 11:29:37;;;;;;;16.27;2.10;;;15.00;64.00;;;;;;4190779;28;20042;-85
2022/10/18 11:32:31;;;;;;;11.80;1.60;;;14.90;63.50;;;;;;4184741;28;20027;-85
2022/10/18 11:35:24;;;;;;;12.27;2.38;;;15.00;63.60;;;;;;4188713;28;20078;-84
2022/10/18 11:38:08;;;;;;;14.52;1.85;;;15.00;63.40;;;;;;4191318;28;20074;-85
2022/10/18 11:40:46;;;;;;;15.82;1.88;;;15.00;63.90;;;;;;4195846;28;20456;-86
2022/10/18 11:43:11;;;;;;;19.85;1.90;;;15.00;64.20;;;;;;4198139;28;20027;-85
2022/10/18 11:45:39;;;;;;;12.77;1.55;;;14.90;63.80;;;;;;4191194;28;20078;-84
2022/10/18 11:48:36;;;;;;;9.57;1.58;;;14.90;64.00;;;;;;4190349;28;20450;-85
2022/10/18 11:51:02;;;;;;;11.73;1.58;;;14.90;63.90;;;;;;4189603;28;20039;-85
2022/10/18 11:53:59;;;;;;;13.10;1.85;;;14.90;64.10;;;;;;4201907;28;20432;-84
2022/10/18 11:56:37;;;;;;;18.55;2.15;;;14.90;64.00;;;;;;4192487;28;20043;-85
2022/10/18 11:59:15;;;;;;;9.98;1.50;;;14.70;64.20;;;;;;4203370;28;20116;-84
2022/10/18 12:01:41;;;;;;;13.20;1.75;;;14.80;64.40;;;;;;4199823;28;20112;-84
2022/10/18 12:04:23;;;;;;;10.20;1.92;;;14.80;64.50;;;;;;4209815;28;20023;-84
2022/10/18 12:06:46;;;;;;;14.48;2.22;;;14.80;64.10;;;;;;4202758;28;20050;-85
2022/10/18 12:09:24;;;;;;;13.20;1.95;;;14.90;64.60;;;;;;4194811;28;20050;-85
2022/10/18 12:11:53;;;;;;;15.25;1.90;;;14.80;64.30;;;;;;4198210;28;20094;-84
2022/10/18 12:14:39;;;;;;;9.90;1.77;;;14.80;65.10;;;;;;4207199;28;20089;-84
2022/10/18 12:17:03;;;;;;;10.00;1.20;;;14.90;64.50;;;;;;4205755;28;20062;-83
2022/10/18 12:19:26;;;;;;;11.43;1.80;;;14.90;64.80;;;;;;4196025;28;20054;-84
2022/10/18 12:21:46;;;;;;;8.00;1.17;;;14.90;64.60;;;;;;4191177;28;20059;-85
2022/10/18 12:24:10;;;;;;;6.95;1.40;;;15.00;64.50;;;;;;4190813;28;20514;-85
2022/10/18 12:26:31;;;;;;;8.25;1.55;;;15.00;64.40;;;;;;4197585;28;20038;-84